Time;durP1;ratioP1;P1;durP2;ratioP2;P2;SDS_P1;SDS_P2;PMS_P1;PMS_P2;Temp;Humidity;BMP_temperature;BMP_pressure;BME280_temperature;BME280_humidity;BME280_pressure;Samples;Min_cycle;Max_cycle;Signal;HPM_P1;HPM_P2
2023/07/27 00:01:05;;;;;;;3.07;2.20;;;14.70;99.90;;;;;;5033909;28;20679;-56
2023/07/27 00:03:32;;;;;;;3.60;1.87;;;14.70;99.90;;;;;;5033952;28;20659;-55
2023/07/27 00:06:00;;;;;;;4.67;2.47;;;14.70;99.90;;;;;;5033503;28;20210;-55
2023/07/27 00:08:27;;;;;;;2.20;1.97;;;14.80;99.90;;;;;;5033422;28;20230;-56
2023/07/27 00:10:54;;;;;;;3.33;2.20;;;14.80;99.90;;;;;;5033758;28;20206;-55
2023/07/27 00:13:21;;;;;;;5.03;2.10;;;14.80;99.90;;;;;;5033641;28;20230;-56
2023/07/27 00:15:48;;;;;;;3.07;2.20;;;14.80;99.90;;;;;;5033197;28;20214;-57
2023/07/27 00:18:14;;;;;;;3.13;2.35;;;14.80;99.90;;;;;;5033263;28;20233;-56
2023/07/27 00:20:41;;;;;;;3.13;2.20;;;14.80;99.90;;;;;;5033471;28;20575;-56
2023/07/27 00:23:09;;;;;;;4.00;2.10;;;14.90;99.90;;;;;;5033757;28;20217;-55
2023/07/27 00:25:36;;;;;;;4.13;2.20;;;15.00;99.90;;;;;;5033320;28;20214;-55
2023/07/27 00:28:02;;;;;;;3.03;2.33;;;15.20;99.90;;;;;;5033218;28;20553;-56
2023/07/27 00:30:29;;;;;;;2.97;2.10;;;15.20;99.90;;;;;;5033637;28;20681;-56
2023/07/27 00:32:56;;;;;;;5.90;2.40;;;15.20;99.90;;;;;;5033562;28;20222;-56
2023/07/27 00:35:22;;;;;;;3.63;2.70;;;15.30;99.90;;;;;;5033410;28;20225;-56
2023/07/27 00:37:49;;;;;;;3.40;2.22;;;15.40;99.90;;;;;;5033101;28;20226;-57
2023/07/27 00:40:18;;;;;;;4.07;2.05;;;15.50;99.90;;;;;;5033009;28;20225;-56
2023/07/27 00:42:44;;;;;;;2.53;2.08;;;15.50;99.90;;;;;;5033285;28;20229;-55
2023/07/27 00:45:11;;;;;;;2.38;2.10;;;15.50;99.90;;;;;;5033211;28;20210;-57
2023/07/27 00:47:38;;;;;;;4.53;2.10;;;15.40;99.90;;;;;;5032835;28;20226;-56
2023/07/27 00:50:05;;;;;;;3.35;2.30;;;15.30;99.90;;;;;;5032680;28;20621;-55
2023/07/27 00:52:32;;;;;;;4.38;2.00;;;15.20;99.90;;;;;;5032616;28;20226;-56
2023/07/27 00:54:59;;;;;;;3.45;2.33;;;15.30;99.90;;;;;;5032701;28;20234;-56
2023/07/27 00:57:27;;;;;;;3.63;2.17;;;15.20;99.90;;;;;;5032523;28;20230;-55
2023/07/27 00:59:54;;;;;;;3.75;2.15;;;15.20;99.90;;;;;;5032648;28;20206;-56
2023/07/27 01:02:21;;;;;;;2.78;2.15;;;15.10;99.90;;;;;;5032450;28;20213;-56
2023/07/27 01:04:48;;;;;;;2.87;2.10;;;15.10;99.90;;;;;;5032725;28;20645;-57
2023/07/27 01:07:14;;;;;;;3.53;2.40;;;15.00;99.90;;;;;;5032118;28;20773;-56
2023/07/27 01:09:41;;;;;;;4.37;2.30;;;14.90;99.90;;;;;;5032613;28;20593;-58
2023/07/27 01:12:12;;;;;;;5.70;2.10;;;14.90;99.90;;;;;;5032485;28;20217;-57
2023/07/27 01:14:47;;;;;;;3.87;1.97;;;14.90;99.90;;;;;;5032393;28;20299;-56
2023/07/27 01:17:21;;;;;;;3.20;2.00;;;14.80;99.90;;;;;;5032098;28;20209;-59
2023/07/27 01:20:13;;;;;;;2.17;1.97;;;14.90;99.90;;;;;;5032431;28;20213;-59
2023/07/27 01:23:13;;;;;;;5.50;2.37;;;14.90;99.90;;;;;;5032211;28;20632;-58
2023/07/27 01:25:54;;;;;;;3.00;2.23;;;14.90;99.90;;;;;;5006915;28;20210;-59
2023/07/27 01:28:38;;;;;;;4.93;2.10;;;14.80;99.90;;;;;;5032145;28;20238;-60
2023/07/27 01:31:10;;;;;;;2.10;1.90;;;14.90;99.90;;;;;;5031967;28;20674;-60
2023/07/27 01:33:42;;;;;;;2.27;2.03;;;14.90;99.90;;;;;;5031901;28;20240;-60
2023/07/27 01:36:12;;;;;;;3.38;2.58;;;14.90;99.90;;;;;;5031928;28;20213;-59
2023/07/27 01:38:42;;;;;;;3.95;2.20;;;14.80;99.90;;;;;;5031979;28;20226;-60
2023/07/27 01:41:12;;;;;;;3.83;2.10;;;14.70;99.90;;;;;;5031946;28;20560;-59
2023/07/27 01:43:41;;;;;;;3.00;2.00;;;14.70;99.90;;;;;;5031688;28;20203;-58
2023/07/27 01:46:11;;;;;;;3.30;2.30;;;14.60;99.90;;;;;;5031290;28;20229;-59
2023/07/27 01:48:40;;;;;;;5.50;2.03;;;14.70;99.90;;;;;;5031733;28;20226;-60
2023/07/27 01:51:09;;;;;;;5.30;2.40;;;14.70;99.90;;;;;;5031787;28;20210;-60
2023/07/27 01:53:37;;;;;;;4.27;2.30;;;14.90;99.90;;;;;;5031547;28;20732;-60
2023/07/27 01:56:06;;;;;;;3.57;1.97;;;15.00;99.90;;;;;;5031357;28;20233;-59
2023/07/27 01:58:34;;;;;;;3.87;2.30;;;15.00;99.90;;;;;;5030733;28;20632;-59
2023/07/27 02:01:01;;;;;;;4.80;2.20;;;15.10;99.90;;;;;;5031378;28;20205;-59
2023/07/27 02:03:30;;;;;;;4.53;2.10;;;15.10;99.90;;;;;;5031682;28;20205;-59
2023/07/27 02:05:57;;;;;;;2.40;2.00;;;15.00;99.90;;;;;;5031457;28;20202;-60
2023/07/27 02:08:24;;;;;;;3.10;2.00;;;15.00;99.90;;;;;;5031362;28;20317;-60
2023/07/27 02:10:55;;;;;;;3.35;2.30;;;14.90;99.90;;;;;;5031474;28;20206;-59
2023/07/27 02:13:28;;;;;;;2.20;1.87;;;14.90;99.90;;;;;;5031426;28;20233;-59
2023/07/27 02:16:05;;;;;;;3.20;2.40;;;14.80;99.90;;;;;;5031245;28;20327;-60
2023/07/27 02:18:37;;;;;;;2.90;2.20;;;14.80;99.90;;;;;;5031280;28;20313;-59
2023/07/27 02:21:06;;;;;;;3.07;2.00;;;14.80;99.90;;;;;;5031100;28;20689;-59
2023/07/27 02:23:33;;;;;;;3.28;2.05;;;14.90;99.90;;;;;;5031556;28;20206;-60
2023/07/27 02:26:00;;;;;;;2.28;2.00;;;14.70;99.90;;;;;;5031287;28;20233;-60
2023/07/27 02:28:28;;;;;;;2.03;1.60;;;14.70;99.90;;;;;;5031138;28;20234;-59
2023/07/27 02:30:55;;;;;;;3.10;2.20;;;14.80;99.90;;;;;;5031407;28;20206;-60
2023/07/27 02:33:22;;;;;;;4.43;2.23;;;14.80;99.90;;;;;;5031271;28;20218;-59
2023/07/27 02:35:51;;;;;;;3.77;2.40;;;14.80;99.90;;;;;;5030957;28;20213;-59
2023/07/27 02:38:17;;;;;;;3.20;2.13;;;14.70;99.90;;;;;;5031552;28;20237;-60
2023/07/27 02:40:44;;;;;;;3.07;1.93;;;14.70;99.90;;;;;;5031650;28;20206;-59
2023/07/27 02:43:11;;;;;;;3.50;1.80;;;14.70;99.90;;;;;;5031093;28;20214;-60
2023/07/27 02:45:37;;;;;;;4.20;2.20;;;14.70;99.90;;;;;;5031292;28;20206;-57
2023/07/27 02:48:04;;;;;;;2.50;2.10;;;14.80;99.90;;;;;;5030965;28;20234;-58
2023/07/27 02:50:31;;;;;;;3.23;2.00;;;14.80;99.90;;;;;;5030864;28;20203;-60
2023/07/27 02:52:59;;;;;;;3.70;1.90;;;14.70;99.90;;;;;;5031092;28;20222;-60
2023/07/27 02:55:26;;;;;;;2.10;1.83;;;14.80;99.90;;;;;;5030889;28;20210;-60
2023/07/27 02:57:52;;;;;;;2.17;1.90;;;14.80;99.90;;;;;;5030649;28;20263;-60
2023/07/27 03:00:19;;;;;;;3.13;1.75;;;14.90;99.90;;;;;;5031043;28;20632;-59
2023/07/27 03:02:46;;;;;;;4.53;1.83;;;14.90;99.90;;;;;;5030998;28;20256;-59
2023/07/27 03:05:13;;;;;;;4.80;2.00;;;14.80;99.90;;;;;;5030861;28;20213;-58
2023/07/27 03:07:39;;;;;;;2.40;2.00;;;14.80;99.90;;;;;;5030458;28;20571;-61
2023/07/27 03:10:09;;;;;;;3.47;2.20;;;14.90;99.90;;;;;;5032388;28;20593;-60
2023/07/27 03:12:35;;;;;;;2.70;2.40;;;14.90;99.90;;;;;;5034772;28;20206;-60
2023/07/27 03:15:02;;;;;;;3.27;2.20;;;14.90;99.90;;;;;;5034530;28;20226;-59
2023/07/27 03:17:29;;;;;;;2.53;2.00;;;14.90;99.90;;;;;;5034401;28;20698;-59
2023/07/27 03:19:56;;;;;;;3.43;2.97;;;14.90;99.90;;;;;;5034861;28;20206;-61
2023/07/27 03:22:23;;;;;;;5.27;2.20;;;15.00;99.90;;;;;;5034579;28;20206;-60
2023/07/27 03:24:50;;;;;;;3.30;2.13;;;15.00;99.90;;;;;;5034676;28;20198;-60
2023/07/27 03:27:18;;;;;;;3.70;2.40;;;15.00;99.90;;;;;;5033927;28;20206;-59
2023/07/27 03:29:45;;;;;;;3.20;2.50;;;15.10;99.90;;;;;;5034616;28;20211;-59
2023/07/27 03:32:11;;;;;;;2.20;2.00;;;15.20;99.90;;;;;;5034183;28;20202;-59
2023/07/27 03:34:38;;;;;;;4.18;2.15;;;15.20;99.90;;;;;;5034545;28;20634;-59
2023/07/27 03:37:05;;;;;;;3.13;2.33;;;15.20;99.90;;;;;;5034138;28;20562;-59
2023/07/27 03:39:32;;;;;;;3.23;2.40;;;15.30;99.90;;;;;;5034267;28;20690;-58
2023/07/27 03:41:58;;;;;;;2.83;1.87;;;15.30;99.90;;;;;;5034106;28;20244;-59
2023/07/27 03:44:26;;;;;;;3.10;1.80;;;15.30;99.90;;;;;;5034035;28;20501;-59
2023/07/27 03:46:53;;;;;;;1.90;1.70;;;15.30;99.90;;;;;;5033662;28;20301;-59
2023/07/27 03:49:20;;;;;;;2.38;2.13;;;15.20;99.90;;;;;;5034285;28;20234;-58
2023/07/27 03:51:46;;;;;;;4.18;1.88;;;15.10;99.90;;;;;;5034012;28;20658;-58
2023/07/27 03:54:13;;;;;;;3.75;2.20;;;15.20;99.90;;;;;;5033885;28;20596;-59
2023/07/27 03:56:40;;;;;;;2.33;2.10;;;15.30;99.90;;;;;;5033623;28;20670;-58
2023/07/27 03:59:07;;;;;;;2.63;2.00;;;15.40;99.90;;;;;;5033771;28;20245;-59
2023/07/27 04:01:35;;;;;;;2.83;2.00;;;15.40;99.90;;;;;;5033620;28;20210;-59
2023/07/27 04:04:01;;;;;;;2.07;1.73;;;15.30;99.90;;;;;;5033979;28;20672;-59
2023/07/27 04:06:28;;;;;;;4.35;1.90;;;15.30;99.90;;;;;;5033441;28;20206;-59
2023/07/27 04:08:55;;;;;;;3.70;2.00;;;15.20;99.90;;;;;;5033741;28;20228;-59
2023/07/27 04:11:22;;;;;;;4.63;2.00;;;15.20;99.90;;;;;;5033844;28;20216;-60
2023/07/27 04:13:48;;;;;;;4.93;2.67;;;15.20;99.90;;;;;;5033455;28;20280;-59
2023/07/27 04:16:15;;;;;;;5.20;2.20;;;15.30;99.90;;;;;;5033507;28;20588;-59
2023/07/27 04:18:43;;;;;;;2.17;1.85;;;15.30;99.90;;;;;;5033549;28;20320;-59
2023/07/27 04:21:10;;;;;;;2.83;2.00;;;15.40;99.90;;;;;;5032982;28;20206;-59
2023/07/27 04:23:36;;;;;;;2.43;2.00;;;15.40;99.90;;;;;;5033432;28;20574;-59
2023/07/27 04:26:03;;;;;;;2.35;1.80;;;15.50;99.90;;;;;;5033188;28;20689;-59
2023/07/27 04:28:30;;;;;;;3.42;2.28;;;15.50;99.90;;;;;;5032853;28;20308;-60
2023/07/27 04:30:57;;;;;;;3.83;1.97;;;15.40;99.90;;;;;;5033182;28;20202;-58
2023/07/27 04:33:23;;;;;;;3.13;1.90;;;15.30;99.90;;;;;;5033223;28;20206;-59
2023/07/27 04:35:51;;;;;;;3.13;1.98;;;15.30;99.90;;;;;;5032984;28;20206;-59
2023/07/27 04:38:18;;;;;;;3.80;2.13;;;15.10;99.90;;;;;;5033034;28;20230;-61
2023/07/27 04:40:45;;;;;;;4.23;2.00;;;15.20;99.90;;;;;;5033068;28;20217;-58
2023/07/27 04:43:12;;;;;;;4.63;2.30;;;15.30;99.90;;;;;;5032704;28;20303;-59
2023/07/27 04:45:39;;;;;;;2.00;1.80;;;15.40;99.90;;;;;;5033126;28;20233;-59
2023/07/27 04:48:07;;;;;;;2.03;1.83;;;15.40;99.90;;;;;;5033059;28;20233;-57
2023/07/27 04:50:33;;;;;;;3.03;1.90;;;15.30;99.90;;;;;;5032932;28;20210;-58
2023/07/27 04:53:01;;;;;;;2.77;2.00;;;15.40;99.90;;;;;;5032780;28;20213;-59
2023/07/27 04:55:28;;;;;;;2.92;2.05;;;15.50;99.90;;;;;;5032626;28;20697;-57
2023/07/27 04:57:55;;;;;;;4.45;2.00;;;15.50;99.90;;;;;;5032794;28;20232;-58
2023/07/27 05:00:21;;;;;;;4.00;1.97;;;15.50;99.90;;;;;;5032542;28;20264;-57
2023/07/27 05:02:48;;;;;;;2.90;1.80;;;15.50;99.90;;;;;;5032866;28;20207;-58
2023/07/27 05:05:15;;;;;;;4.28;1.80;;;15.60;99.90;;;;;;5032886;28;20210;-59
2023/07/27 05:07:42;;;;;;;3.10;2.03;;;15.70;99.90;;;;;;5032237;28;20222;-59
2023/07/27 05:10:10;;;;;;;2.63;1.80;;;15.80;99.90;;;;;;5032321;28;20225;-59
2023/07/27 05:12:36;;;;;;;3.30;1.92;;;16.00;99.90;;;;;;5032314;28;20556;-58
2023/07/27 05:15:03;;;;;;;3.08;1.90;;;16.20;99.90;;;;;;5032295;28;20237;-59
2023/07/27 05:17:30;;;;;;;2.67;1.60;;;16.30;99.90;;;;;;5032192;28;20375;-58
2023/07/27 05:19:57;;;;;;;3.03;1.90;;;16.50;99.90;;;;;;5032487;28;20675;-58
2023/07/27 05:22:24;;;;;;;2.20;1.88;;;16.60;99.90;;;;;;5032261;28;20210;-58
2023/07/27 05:24:50;;;;;;;4.60;1.77;;;16.80;99.90;;;;;;5032060;28;20206;-59
2023/07/27 05:27:18;;;;;;;2.20;1.75;;;16.90;99.90;;;;;;5031539;28;20264;-60
2023/07/27 05:29:45;;;;;;;3.25;1.90;;;17.00;99.90;;;;;;5032098;28;20709;-60
2023/07/27 05:32:12;;;;;;;1.95;1.73;;;17.20;99.90;;;;;;5032427;28;20217;-59
2023/07/27 05:34:38;;;;;;;2.08;1.88;;;17.40;99.90;;;;;;5032424;28;20233;-59
2023/07/27 05:37:05;;;;;;;4.45;2.28;;;17.50;99.90;;;;;;5032392;28;20616;-59
2023/07/27 05:39:32;;;;;;;3.88;1.75;;;17.70;99.90;;;;;;5032682;28;20585;-59
2023/07/27 05:41:58;;;;;;;2.25;1.90;;;17.80;99.90;;;;;;5032157;28;20225;-59
2023/07/27 05:44:26;;;;;;;2.25;1.90;;;18.10;99.90;;;;;;5031960;28;20202;-59
2023/07/27 05:46:56;;;;;;;3.17;2.10;;;18.20;99.90;;;;;;5031766;28;20212;-60
2023/07/27 05:49:23;;;;;;;2.97;1.80;;;18.30;99.90;;;;;;5031792;28;20253;-59
2023/07/27 05:51:49;;;;;;;2.55;1.77;;;18.40;99.90;;;;;;5031725;28;20210;-64
2023/07/27 05:54:16;;;;;;;4.30;1.80;;;18.50;99.90;;;;;;5031646;28;20253;-61
2023/07/27 05:56:43;;;;;;;2.25;1.73;;;18.70;99.90;;;;;;5031293;28;20206;-55
2023/07/27 05:59:09;;;;;;;3.92;1.92;;;18.80;99.90;;;;;;5031603;28;20230;-54
2023/07/27 06:01:37;;;;;;;3.28;1.80;;;19.00;99.90;;;;;;5031530;28;20250;-56
2023/07/27 06:04:04;;;;;;;2.22;1.80;;;19.20;99.90;;;;;;5031955;28;20230;-55
2023/07/27 06:06:31;;;;;;;3.30;1.58;;;19.30;99.90;;;;;;5030957;28;20216;-55
2023/07/27 06:08:58;;;;;;;3.42;2.00;;;19.50;99.90;;;;;;5031660;28;20229;-56
2023/07/27 06:11:24;;;;;;;2.90;1.92;;;19.70;99.90;;;;;;5031282;28;20229;-56
2023/07/27 06:13:51;;;;;;;1.52;1.38;;;20.00;99.90;;;;;;5031431;28;20533;-56
2023/07/27 06:16:18;;;;;;;4.70;2.00;;;20.20;99.90;;;;;;5030906;28;20588;-56
2023/07/27 06:18:46;;;;;;;2.67;1.60;;;20.40;99.90;;;;;;5031168;28;20714;-56
2023/07/27 06:21:12;;;;;;;4.82;2.30;;;20.70;99.90;;;;;;5031022;28;20272;-57
2023/07/27 06:23:39;;;;;;;3.08;1.80;;;20.90;99.90;;;;;;5031242;28;20293;-55
2023/07/27 06:26:06;;;;;;;4.10;1.88;;;21.00;99.90;;;;;;5031124;28;20210;-56
2023/07/27 06:28:35;;;;;;;4.00;2.03;;;21.10;99.90;;;;;;5031555;28;20238;-56
2023/07/27 06:31:02;;;;;;;3.25;1.50;;;21.10;99.90;;;;;;5030998;28;20316;-56
2023/07/27 06:33:29;;;;;;;4.00;2.00;;;21.30;99.90;;;;;;5030973;28;20333;-57
2023/07/27 06:35:58;;;;;;;2.65;1.80;;;21.60;99.90;;;;;;5030672;28;20229;-60
2023/07/27 06:38:24;;;;;;;2.10;1.60;;;21.80;99.90;;;;;;5027989;28;20752;-61
2023/07/27 06:40:51;;;;;;;2.70;1.73;;;22.10;99.90;;;;;;5030921;28;20260;-61
2023/07/27 06:43:18;;;;;;;2.53;1.33;;;22.30;99.90;;;;;;5030880;28;20228;-61
2023/07/27 06:45:45;;;;;;;1.63;1.48;;;22.60;99.90;;;;;;5034080;28;20217;-60
2023/07/27 06:48:11;;;;;;;2.95;1.25;;;23.10;99.90;;;;;;5035011;28;20230;-63
2023/07/27 06:50:38;;;;;;;2.47;1.70;;;23.70;99.90;;;;;;5035098;28;20222;-59
2023/07/27 06:53:06;;;;;;;4.07;1.58;;;24.50;99.90;;;;;;5034940;28;20245;-61
2023/07/27 06:55:33;;;;;;;3.22;1.90;;;25.20;99.90;;;;;;5034662;28;20658;-60
2023/07/27 06:58:01;;;;;;;2.83;1.50;;;25.50;99.50;;;;;;5034458;28;20262;-60
2023/07/27 07:00:27;;;;;;;2.50;1.50;;;25.50;98.20;;;;;;5034847;28;20210;-60
2023/07/27 07:02:55;;;;;;;2.08;1.48;;;25.20;98.10;;;;;;5034650;28;20583;-59
2023/07/27 07:05:21;;;;;;;5.47;1.70;;;24.80;98.00;;;;;;5034510;28;20206;-61
2023/07/27 07:07:48;;;;;;;2.75;1.80;;;24.30;98.80;;;;;;5034470;28;20226;-61
2023/07/27 07:10:18;;;;;;;4.80;1.80;;;23.90;99.30;;;;;;5034931;28;20212;-61
2023/07/27 07:12:45;;;;;;;3.65;1.50;;;23.50;99.90;;;;;;5034355;28;20214;-61
2023/07/27 07:15:11;;;;;;;2.70;1.83;;;23.10;99.90;;;;;;5034054;28;20280;-60
2023/07/27 07:17:38;;;;;;;1.83;1.60;;;22.90;99.90;;;;;;5034109;28;20233;-61
2023/07/27 07:20:08;;;;;;;3.67;1.98;;;22.90;99.90;;;;;;5034457;28;20202;-59
2023/07/27 07:22:35;;;;;;;4.90;1.73;;;22.90;99.90;;;;;;5034533;28;20221;-61
2023/07/27 07:25:02;;;;;;;4.85;1.80;;;22.90;99.90;;;;;;5034058;28;20206;-59
2023/07/27 07:27:30;;;;;;;4.78;2.00;;;22.80;99.90;;;;;;5033416;28;20280;-58
2023/07/27 07:29:57;;;;;;;2.42;1.92;;;22.70;99.90;;;;;;5034329;28;20210;-58
2023/07/27 07:32:23;;;;;;;3.97;2.05;;;22.90;99.90;;;;;;5034439;28;20210;-59
2023/07/27 07:34:51;;;;;;;3.17;1.60;;;23.10;99.90;;;;;;5034097;28;20646;-66
2023/07/27 07:37:18;;;;;;;7.95;1.80;;;23.20;99.90;;;;;;5033658;28;20207;-64
2023/07/27 07:39:45;;;;;;;2.60;1.80;;;23.00;99.90;;;;;;5033582;28;20214;-64
2023/07/27 07:42:11;;;;;;;2.90;1.30;;;22.90;99.90;;;;;;5033763;28;20280;-60
2023/07/27 07:44:39;;;;;;;3.08;1.67;;;22.70;99.90;;;;;;5033894;28;20207;-63
2023/07/27 07:47:06;;;;;;;2.63;1.65;;;22.70;99.90;;;;;;5033716;28;20213;-64
2023/07/27 07:49:33;;;;;;;2.55;1.50;;;22.80;99.90;;;;;;5033636;28;20569;-61
2023/07/27 07:52:00;;;;;;;2.50;1.67;;;23.00;99.90;;;;;;5033293;28;20202;-62
2023/07/27 07:54:28;;;;;;;2.70;1.70;;;23.00;99.90;;;;;;5033359;28;20297;-62
2023/07/27 07:56:55;;;;;;;1.92;1.80;;;22.90;99.90;;;;;;5032406;28;20225;-62
2023/07/27 07:59:22;;;;;;;2.63;1.77;;;22.80;99.90;;;;;;5033519;28;20639;-61
2023/07/27 08:01:50;;;;;;;4.00;1.65;;;22.80;99.90;;;;;;5033963;28;20210;-63
2023/07/27 08:04:17;;;;;;;6.15;1.60;;;22.80;99.90;;;;;;5033142;28;20223;-62
2023/07/27 08:06:45;;;;;;;2.63;1.70;;;22.90;99.90;;;;;;5033019;28;20213;-59
2023/07/27 08:09:12;;;;;;;2.30;1.70;;;22.90;99.90;;;;;;5033183;28;20230;-60
2023/07/27 08:11:41;;;;;;;2.58;1.55;;;23.00;99.90;;;;;;5033663;28;20238;-60
2023/07/27 08:14:07;;;;;;;2.90;1.80;;;22.90;99.90;;;;;;5033568;28;20256;-61
2023/07/27 08:16:34;;;;;;;2.08;1.75;;;22.90;99.90;;;;;;5032590;28;20241;-60
2023/07/27 08:19:02;;;;;;;3.20;1.67;;;23.00;99.90;;;;;;5033080;28;20226;-60
2023/07/27 08:21:29;;;;;;;3.33;1.73;;;23.00;99.90;;;;;;5032966;28;20202;-63
2023/07/27 08:23:56;;;;;;;3.17;2.13;;;23.00;99.90;;;;;;5032891;28;20736;-65
2023/07/27 08:26:23;;;;;;;5.53;1.88;;;23.20;99.90;;;;;;5032718;28;20206;-62
2023/07/27 08:28:49;;;;;;;3.10;1.80;;;23.20;99.90;;;;;;5032682;28;20246;-63
2023/07/27 08:31:16;;;;;;;2.20;1.63;;;23.20;99.90;;;;;;5032808;28;20213;-63
2023/07/27 08:33:43;;;;;;;2.25;1.60;;;23.00;99.90;;;;;;5032980;28;20210;-61
2023/07/27 08:36:11;;;;;;;2.88;1.85;;;22.80;99.90;;;;;;5032382;28;20234;-63
2023/07/27 08:38:37;;;;;;;2.50;1.83;;;22.50;99.90;;;;;;5032696;28;20231;-61
2023/07/27 08:41:04;;;;;;;2.70;1.70;;;22.40;99.90;;;;;;5032290;28;20237;-66
2023/07/27 08:43:31;;;;;;;7.30;4.18;;;22.20;99.90;;;;;;5032650;28;20297;-59
2023/07/27 08:45:59;;;;;;;7.05;2.13;;;22.20;99.90;;;;;;5032854;28;20213;-62
2023/07/27 08:48:26;;;;;;;4.78;1.88;;;22.20;99.90;;;;;;5033016;28;20284;-60
2023/07/27 08:50:53;;;;;;;4.43;1.80;;;22.10;99.90;;;;;;5032260;28;20586;-60
2023/07/27 08:53:22;;;;;;;6.32;2.20;;;22.10;99.90;;;;;;5032170;28;20210;-61
2023/07/27 08:55:49;;;;;;;4.05;2.28;;;21.90;99.90;;;;;;5032061;28;20617;-63
2023/07/27 08:58:16;;;;;;;3.35;2.13;;;22.00;99.90;;;;;;5032379;28;20280;-60
2023/07/27 09:00:43;;;;;;;4.15;2.53;;;22.30;99.90;;;;;;5032600;28;20202;-61
2023/07/27 09:03:10;;;;;;;3.97;1.90;;;22.50;99.90;;;;;;5032282;28;20214;-62
2023/07/27 09:05:40;;;;;;;5.45;2.33;;;22.50;99.90;;;;;;5032455;28;20323;-61
2023/07/27 09:08:08;;;;;;;3.20;1.98;;;22.30;99.90;;;;;;5032241;28;20226;-60
2023/07/27 09:10:37;;;;;;;3.88;2.25;;;22.30;99.90;;;;;;5032516;28;20218;-65
2023/07/27 09:13:04;;;;;;;5.10;3.70;;;22.40;99.90;;;;;;5032642;28;20242;-61
2023/07/27 09:15:31;;;;;;;4.03;2.05;;;22.40;99.90;;;;;;5031943;28;20226;-61
2023/07/27 09:17:58;;;;;;;3.05;1.80;;;22.50;99.90;;;;;;5031562;28;20249;-62
2023/07/27 09:20:25;;;;;;;3.00;1.92;;;22.50;99.90;;;;;;5032390;28;20622;-64
2023/07/27 09:22:52;;;;;;;2.95;1.63;;;22.60;99.90;;;;;;5032393;28;20252;-61
2023/07/27 09:25:21;;;;;;;3.40;2.00;;;22.70;99.90;;;;;;5032318;28;20237;-62
2023/07/27 09:27:52;;;;;;;3.60;1.70;;;22.70;99.90;;;;;;5031705;28;20236;-61
2023/07/27 09:30:19;;;;;;;2.97;2.38;;;22.60;99.90;;;;;;5031653;28;20230;-62
2023/07/27 09:32:47;;;;;;;3.35;1.73;;;22.60;99.90;;;;;;5031818;28;20227;-64
2023/07/27 09:35:14;;;;;;;2.85;1.83;;;22.50;99.90;;;;;;5031825;28;20705;-64
2023/07/27 09:37:44;;;;;;;6.47;4.10;;;22.40;99.90;;;;;;5031611;28;20610;-63
2023/07/27 09:40:13;;;;;;;3.83;2.63;;;22.10;99.90;;;;;;5031967;28;20230;-63
2023/07/27 09:42:41;;;;;;;6.28;2.45;;;22.00;99.90;;;;;;5031320;28;20210;-61
2023/07/27 09:45:10;;;;;;;5.03;2.10;;;22.00;99.90;;;;;;5031460;28;20682;-60
2023/07/27 09:47:38;;;;;;;5.00;2.72;;;22.10;99.90;;;;;;5031523;28;20254;-62
2023/07/27 09:50:06;;;;;;;5.30;2.10;;;22.20;99.90;;;;;;5031590;28;20686;-62
2023/07/27 09:52:35;;;;;;;3.45;1.80;;;22.40;99.90;;;;;;5032026;28;20221;-64
2023/07/27 09:55:02;;;;;;;3.28;1.98;;;22.50;99.90;;;;;;5030811;28;20208;-62
2023/07/27 09:57:29;;;;;;;3.33;2.13;;;22.60;99.90;;;;;;5032685;28;20647;-63
2023/07/27 09:59:56;;;;;;;5.63;2.13;;;22.70;99.90;;;;;;5031510;28;20573;-64
2023/07/27 10:02:24;;;;;;;3.63;2.67;;;22.80;99.90;;;;;;5043038;28;20255;-61
2023/07/27 10:04:51;;;;;;;2.28;1.92;;;22.80;99.90;;;;;;5051054;28;20205;-61
2023/07/27 10:07:19;;;;;;;2.15;1.80;;;22.90;99.90;;;;;;5050543;28;20216;-59
2023/07/27 10:09:46;;;;;;;6.15;2.13;;;22.90;99.90;;;;;;5050893;28;20228;-60
2023/07/27 10:12:25;;;;;;;3.42;2.20;;;22.90;99.90;;;;;;5050906;28;20216;-59
2023/07/27 10:15:18;;;;;;;3.08;1.80;;;23.00;99.90;;;;;;5051002;28;20209;-63
2023/07/27 10:17:50;;;;;;;2.97;2.00;;;23.00;99.90;;;;;;5050633;28;20221;-61
2023/07/27 10:20:21;;;;;;;2.83;1.90;;;23.00;99.90;;;;;;5050099;28;20210;-60
2023/07/27 10:22:52;;;;;;;4.75;2.35;;;22.90;99.90;;;;;;5051102;28;20213;-62
2023/07/27 10:25:19;;;;;;;15.05;9.02;;;22.90;99.90;;;;;;5050761;28;20670;-59
2023/07/27 10:27:55;;;;;;;3.65;2.95;;;22.80;99.90;;;;;;5050399;28;20238;-62
2023/07/27 10:30:22;;;;;;;2.88;2.10;;;22.70;99.90;;;;;;5051025;28;20233;-60
2023/07/27 10:33:15;;;;;;;5.55;1.98;;;22.60;99.90;;;;;;5051017;28;20685;-61
2023/07/27 10:36:01;;;;;;;2.83;1.80;;;22.50;99.90;;;;;;5051038;28;20544;-60
2023/07/27 10:38:27;;;;;;;4.47;3.72;;;22.40;99.90;;;;;;5051677;28;20253;-65
2023/07/27 10:40:54;;;;;;;9.68;6.05;;;22.30;99.90;;;;;;5051403;28;20212;-61
2023/07/27 10:43:21;;;;;;;7.25;2.05;;;22.30;99.90;;;;;;5051148;28;20209;-60
2023/07/27 10:45:54;;;;;;;4.07;1.90;;;22.30;99.90;;;;;;5050940;28;20239;-61
2023/07/27 10:48:22;;;;;;;2.95;2.28;;;22.30;99.90;;;;;;5050862;28;20725;-62
2023/07/27 10:50:49;;;;;;;9.63;6.72;;;22.30;99.90;;;;;;5050602;28;20769;-60
2023/07/27 10:53:16;;;;;;;2.88;1.80;;;22.30;99.90;;;;;;5051383;28;20239;-61
2023/07/27 10:55:44;;;;;;;2.97;1.90;;;22.40;99.90;;;;;;5050426;28;20225;-62
2023/07/27 10:58:13;;;;;;;4.05;2.05;;;22.50;99.90;;;;;;5050947;28;20249;-62
2023/07/27 11:00:40;;;;;;;2.10;1.65;;;22.50;99.90;;;;;;5051023;28;20210;-62
2023/07/27 11:03:08;;;;;;;2.72;1.88;;;22.60;99.90;;;;;;5051168;28;20205;-59
2023/07/27 11:05:39;;;;;;;3.00;1.80;;;22.80;99.90;;;;;;5050673;28;20213;-58
2023/07/27 11:08:05;;;;;;;3.35;1.88;;;23.10;99.90;;;;;;5050413;28;20232;-60
2023/07/27 11:10:32;;;;;;;4.47;1.88;;;23.20;99.90;;;;;;5050255;28;20229;-60
2023/07/27 11:12:59;;;;;;;5.97;2.97;;;23.30;99.90;;;;;;5043395;28;20340;-60
2023/07/27 11:15:29;;;;;;;3.00;2.40;;;23.40;99.90;;;;;;5050036;28;20215;-61
2023/07/27 11:17:57;;;;;;;3.05;1.95;;;23.50;99.90;;;;;;5050144;28;20230;-61
2023/07/27 11:20:25;;;;;;;3.22;1.65;;;23.50;99.90;;;;;;5050304;28;20205;-60
2023/07/27 11:22:55;;;;;;;4.78;1.80;;;23.50;99.90;;;;;;5050568;28;20201;-59
2023/07/27 11:25:22;;;;;;;6.97;1.85;;;23.50;99.90;;;;;;5050305;28;20586;-60
2023/07/27 11:27:49;;;;;;;7.55;1.58;;;23.60;99.90;;;;;;5050435;28;20317;-60
2023/07/27 11:30:17;;;;;;;2.78;1.50;;;23.80;99.90;;;;;;5050555;28;20584;-61
2023/07/27 11:32:57;;;;;;;2.92;1.90;;;24.00;99.90;;;;;;5053759;28;20209;-62
2023/07/27 11:35:23;;;;;;;4.10;2.20;;;24.10;99.90;;;;;;5054115;28;20676;-61
2023/07/27 11:37:50;;;;;;;3.33;1.58;;;24.20;99.90;;;;;;5053514;28;20229;-59
2023/07/27 11:40:20;;;;;;;3.88;1.67;;;24.20;99.90;;;;;;5054351;28;20582;-60
2023/07/27 11:42:46;;;;;;;2.70;2.10;;;24.10;99.90;;;;;;5053847;28;20580;-60
2023/07/27 11:45:14;;;;;;;3.28;1.70;;;24.00;99.90;;;;;;5054058;28;20206;-61
2023/07/27 11:47:41;;;;;;;2.15;1.52;;;24.00;99.90;;;;;;5053773;28;20247;-60
2023/07/27 11:50:08;;;;;;;2.53;1.92;;;23.90;99.90;;;;;;5053814;28;20585;-61
2023/07/27 11:52:38;;;;;;;3.55;1.60;;;24.10;99.90;;;;;;5053941;28;20677;-60
2023/07/27 11:55:06;;;;;;;2.67;1.90;;;24.10;99.90;;;;;;5053951;28;20240;-60
2023/07/27 11:57:34;;;;;;;2.08;1.63;;;24.30;99.90;;;;;;5053630;28;20236;-60
2023/07/27 12:00:03;;;;;;;2.13;1.63;;;24.50;99.90;;;;;;5053764;28;20208;-61
2023/07/27 12:02:33;;;;;;;2.20;1.48;;;24.70;99.90;;;;;;5053896;28;20209;-60
2023/07/27 12:05:00;;;;;;;3.90;1.85;;;24.90;99.90;;;;;;5054113;28;20209;-60
2023/07/27 12:07:27;;;;;;;17.90;16.10;;;24.90;99.90;;;;;;5053531;28;20202;-59
2023/07/27 12:09:54;;;;;;;3.30;2.38;;;24.90;99.90;;;;;;5053919;28;20638;-61
2023/07/27 12:12:21;;;;;;;4.50;3.97;;;24.90;99.90;;;;;;5053782;28;20224;-61
2023/07/27 12:14:54;;;;;;;3.95;2.00;;;24.90;99.90;;;;;;5053488;28;20232;-60
2023/07/27 12:17:23;;;;;;;3.03;1.70;;;24.80;99.90;;;;;;5053802;28;20225;-60
2023/07/27 12:19:50;;;;;;;2.15;1.73;;;24.70;99.90;;;;;;5053358;28;20209;-61
2023/07/27 12:22:17;;;;;;;3.17;1.83;;;24.80;99.90;;;;;;5053491;28;20210;-60
2023/07/27 12:24:44;;;;;;;1.80;1.50;;;24.80;99.90;;;;;;5053417;28;20202;-61
2023/07/27 12:27:11;;;;;;;10.70;2.50;;;24.90;99.90;;;;;;5052883;28;20202;-59
2023/07/27 12:29:38;;;;;;;6.43;2.00;;;24.90;99.90;;;;;;5053970;28;20669;-60
2023/07/27 12:32:08;;;;;;;4.65;1.92;;;24.90;99.90;;;;;;5053343;28;20202;-60
2023/07/27 12:34:34;;;;;;;5.40;2.13;;;24.90;99.90;;;;;;5053038;28;20744;-59
2023/07/27 12:37:01;;;;;;;2.67;1.90;;;24.80;99.90;;;;;;5052753;28;20303;-57
2023/07/27 12:39:28;;;;;;;3.50;1.83;;;24.80;99.90;;;;;;5053063;28;20795;-58
2023/07/27 12:41:54;;;;;;;3.33;1.80;;;24.80;99.90;;;;;;5052695;28;20206;-61
2023/07/27 12:44:21;;;;;;;6.20;2.38;;;24.90;99.90;;;;;;5053173;28;20213;-60
2023/07/27 12:46:48;;;;;;;4.88;2.10;;;24.90;99.90;;;;;;5053042;28;20229;-59
2023/07/27 12:49:16;;;;;;;4.18;1.90;;;24.90;99.90;;;;;;5053301;28;20607;-60